7L2

Linton Municipal Airport

Linton, North Dakota, USA
METAR K7L2 172315Z AUTO 21010KT 10SM M10/M15 A3042 RMK AO2
Observed Flight Rules
Nov-17 @ 23:15 UTC (21 minutes ago)
Wind Visibility
210° at 10 knots 10 miles
Temperatures Readings
Current -10°C / 14°F
Dewpoint -15°C / 5°F
Humidity 67%
Altimeter 30.42" Hg
Pressure 1030 hPa
Elevation 543
METAR K7L2 172315Z AUTO 21010KT 10SM M10/M15 A3042 RMK AO2
Observed Flight Rules
Nov-17 @ 23:15 UTC
(21 minutes ago)
Wind Visibility
210° at 10 knots 10 miles
Temperature Dewpoint
-10°C / 14°F -15°C / 5°F
Humidity Altimeter Pressure
67% 30.42" Hg 1030 hPa